Time;durP1;ratioP1;P1;durP2;ratioP2;P2;SDS_P1;SDS_P2;PMS_P1;PMS_P2;Temp;Humidity;BMP_temperature;BMP_pressure;BME280_temperature;BME280_humidity;BME280_pressure;Samples;Min_cycle;Max_cycle;Signal;HPM_P1;HPM_P2
2023/05/05 00:00:56;;;;;;;17.87;14.20;;;19.30;99.90;;;;;;5113666;28;20158;-76
2023/05/05 00:03:23;;;;;;;19.33;13.97;;;19.30;99.90;;;;;;5095289;28;20711;-76
2023/05/05 00:05:49;;;;;;;17.83;14.90;;;19.40;99.90;;;;;;5113136;28;20223;-77
2023/05/05 00:08:16;;;;;;;21.53;14.57;;;19.50;99.90;;;;;;5112943;28;20189;-76
2023/05/05 00:10:46;;;;;;;16.87;13.80;;;19.50;99.90;;;;;;5094877;28;20229;-76
2023/05/05 00:13:13;;;;;;;15.93;13.27;;;19.50;99.90;;;;;;5113172;28;20173;-76
2023/05/05 00:15:42;;;;;;;17.63;12.97;;;19.40;99.90;;;;;;5095057;28;20170;-75
2023/05/05 00:18:08;;;;;;;15.37;12.90;;;19.40;99.90;;;;;;5114778;27;20228;-76
2023/05/05 00:20:33;;;;;;;18.03;13.70;;;19.20;99.90;;;;;;5133673;27;20615;-77
2023/05/05 00:22:59;;;;;;;17.20;12.67;;;19.10;99.90;;;;;;5134083;28;20257;-76
2023/05/05 00:25:25;;;;;;;15.70;13.30;;;19.10;99.90;;;;;;5115343;28;20631;-75
2023/05/05 00:27:51;;;;;;;13.77;11.73;;;19.00;99.90;;;;;;5114251;28;20172;-76
2023/05/05 00:30:17;;;;;;;15.57;11.83;;;19.00;99.90;;;;;;5134406;28;20169;-76
2023/05/05 00:32:43;;;;;;;12.80;11.07;;;19.00;99.90;;;;;;5134576;28;20204;-76
2023/05/05 00:35:09;;;;;;;13.47;11.57;;;18.90;99.90;;;;;;5134706;28;20698;-76
2023/05/05 00:37:34;;;;;;;14.20;10.07;;;18.90;99.90;;;;;;5134254;28;20180;-75
2023/05/05 00:40:00;;;;;;;12.30;9.70;;;19.00;99.90;;;;;;5133925;28;20172;-76
2023/05/05 00:42:38;;;;;;;11.10;9.93;;;18.90;99.90;;;;;;5134471;28;20169;-76
2023/05/05 00:45:04;;;;;;;11.80;9.57;;;19.00;99.90;;;;;;5133785;28;20177;-75
2023/05/05 00:47:30;;;;;;;11.93;9.27;;;18.90;99.90;;;;;;5114756;28;20627;-76
2023/05/05 00:49:56;;;;;;;11.60;9.70;;;19.00;99.90;;;;;;5100326;28;20177;-76
2023/05/05 00:52:22;;;;;;;11.73;10.20;;;19.00;99.90;;;;;;5116884;28;20205;-76
2023/05/05 00:54:48;;;;;;;13.07;9.67;;;18.80;99.90;;;;;;5116632;28;20253;-76
2023/05/05 00:57:13;;;;;;;12.00;10.50;;;18.70;99.90;;;;;;5099161;28;20185;-76
2023/05/05 00:59:40;;;;;;;14.50;11.53;;;18.70;99.90;;;;;;5099057;28;20169;-76
2023/05/05 01:02:06;;;;;;;15.03;11.60;;;18.70;99.90;;;;;;5099252;28;20185;-76
2023/05/05 01:04:31;;;;;;;15.10;12.07;;;18.60;99.90;;;;;;5099520;28;20194;-76
2023/05/05 01:06:57;;;;;;;14.20;12.13;;;18.70;99.90;;;;;;5098750;28;20275;-75
2023/05/05 01:09:45;;;;;;;16.93;13.13;;;18.60;99.90;;;;;;5098565;28;20281;-76
2023/05/05 01:12:34;;;;;;;11.90;9.93;;;18.50;99.90;;;;;;5135815;27;20209;-76
2023/05/05 01:15:13;;;;;;;13.27;9.83;;;18.40;99.90;;;;;;5135198;27;20180;-76
2023/05/05 01:17:47;;;;;;;11.73;9.33;;;18.30;99.90;;;;;;5116430;27;20164;-74
2023/05/05 01:20:39;;;;;;;13.73;9.90;;;18.30;99.90;;;;;;5119100;27;20638;-76
2023/05/05 01:23:07;;;;;;;11.43;7.20;;;18.20;99.90;;;;;;5136415;27;20717;-76
2023/05/05 01:25:38;;;;;;;8.90;6.37;;;18.10;99.90;;;;;;5118905;27;20653;-76
2023/05/05 01:28:22;;;;;;;5.77;5.20;;;18.00;99.90;;;;;;5117837;27;20197;-77
2023/05/05 01:30:51;;;;;;;4.93;4.30;;;18.10;99.90;;;;;;5118143;27;20200;-75
2023/05/05 01:33:24;;;;;;;5.80;4.40;;;18.10;99.90;;;;;;5117084;27;20173;-75
2023/05/05 01:35:54;;;;;;;4.50;4.03;;;18.10;99.90;;;;;;5097536;28;20189;-75
2023/05/05 01:38:27;;;;;;;4.73;3.70;;;17.90;99.90;;;;;;5097559;28;20182;-75
2023/05/05 01:41:00;;;;;;;4.43;3.50;;;17.90;99.90;;;;;;5116515;28;20177;-75
2023/05/05 01:43:30;;;;;;;3.97;3.27;;;17.90;99.90;;;;;;5097622;28;20192;-75
2023/05/05 01:45:57;;;;;;;3.83;3.30;;;17.80;99.90;;;;;;5116457;28;20178;-75
2023/05/05 01:48:25;;;;;;;3.50;3.20;;;17.80;99.90;;;;;;5108547;27;20297;-75
2023/05/05 01:50:52;;;;;;;6.03;3.13;;;17.80;99.90;;;;;;5118044;27;20247;-75
2023/05/05 01:53:23;;;;;;;4.27;3.10;;;17.80;99.90;;;;;;5117387;27;20190;-76
2023/05/05 01:55:49;;;;;;;4.73;3.20;;;17.80;99.90;;;;;;5117902;27;20180;-75
2023/05/05 01:58:16;;;;;;;4.13;3.50;;;17.80;99.90;;;;;;5117381;27;20547;-75
2023/05/05 02:00:43;;;;;;;4.37;3.33;;;18.00;99.90;;;;;;5118279;27;20164;-75
2023/05/05 02:03:12;;;;;;;4.20;3.50;;;18.00;99.90;;;;;;5117563;27;20179;-76
2023/05/05 02:05:39;;;;;;;6.63;4.23;;;17.80;99.90;;;;;;5117636;27;20663;-75
2023/05/05 02:08:07;;;;;;;6.60;3.70;;;17.80;99.90;;;;;;5117559;27;20264;-75
2023/05/05 02:10:34;;;;;;;10.40;4.00;;;17.80;99.90;;;;;;5117779;27;20179;-75
2023/05/05 02:13:03;;;;;;;4.93;3.87;;;17.80;99.90;;;;;;5135118;27;20177;-75
2023/05/05 02:15:30;;;;;;;4.37;3.97;;;17.70;99.90;;;;;;5130608;27;20188;-75
2023/05/05 02:17:58;;;;;;;4.93;3.73;;;17.50;99.90;;;;;;5097002;28;20641;-75
2023/05/05 02:20:26;;;;;;;5.10;4.00;;;17.50;99.90;;;;;;5097222;28;20241;-75
2023/05/05 02:22:52;;;;;;;5.50;4.10;;;17.50;99.90;;;;;;5115412;28;20182;-76
2023/05/05 02:25:18;;;;;;;6.77;4.07;;;17.50;99.90;;;;;;5096806;28;20269;-77
2023/05/05 02:27:46;;;;;;;4.73;3.60;;;17.50;99.90;;;;;;5096648;28;20299;-75
2023/05/05 02:30:16;;;;;;;5.33;3.97;;;17.40;99.90;;;;;;5115272;28;20200;-75
2023/05/05 02:32:55;;;;;;;5.17;3.83;;;17.40;99.90;;;;;;5096928;28;20729;-75
2023/05/05 02:35:26;;;;;;;4.83;3.40;;;17.20;99.90;;;;;;5096261;28;20205;-75
2023/05/05 02:38:00;;;;;;;4.83;3.57;;;17.20;99.90;;;;;;5096697;28;20184;-77
2023/05/05 02:40:29;;;;;;;5.80;3.40;;;17.20;99.90;;;;;;5117353;27;20263;-79
2023/05/05 02:42:58;;;;;;;6.17;3.10;;;17.30;99.90;;;;;;5117647;27;20168;-78
2023/05/05 02:45:25;;;;;;;5.27;3.30;;;17.20;99.90;;;;;;5136142;27;20174;-78
2023/05/05 02:47:51;;;;;;;4.70;3.23;;;17.20;99.90;;;;;;5135677;27;20178;-79
2023/05/05 02:50:16;;;;;;;4.20;3.50;;;17.10;99.90;;;;;;5135609;27;20639;-76
2023/05/05 02:52:43;;;;;;;4.27;3.33;;;17.00;99.90;;;;;;5117197;27;20208;-77
2023/05/05 02:55:10;;;;;;;5.83;4.10;;;17.00;99.90;;;;;;5135492;27;20672;-78
2023/05/05 02:58:29;;;;;;;4.87;3.20;;;17.00;99.90;;;;;;5135249;27;20171;-79
2023/05/05 03:01:24;;;;;;;4.87;4.20;;;17.00;99.90;;;;;;5015223;28;20320;-79
2023/05/05 03:04:22;;;;;;;7.53;4.37;;;17.00;99.90;;;;;;5034851;28;20215;-81
2023/05/05 03:06:52;;;;;;;6.67;4.67;;;16.90;99.90;;;;;;5134721;27;20174;-79
2023/05/05 03:09:36;;;;;;;5.90;4.67;;;16.90;99.90;;;;;;5117044;27;20667;-78
2023/05/05 03:12:06;;;;;;;8.20;4.53;;;16.80;99.90;;;;;;5115493;27;20253;-77
2023/05/05 03:14:41;;;;;;;4.63;4.23;;;16.70;99.90;;;;;;5117384;27;20246;-77
2023/05/05 03:17:11;;;;;;;5.67;4.33;;;16.50;99.90;;;;;;5135489;27;20171;-78
2023/05/05 03:19:41;;;;;;;6.00;4.90;;;16.60;99.90;;;;;;5117175;27;20181;-77
2023/05/05 03:22:09;;;;;;;8.90;5.30;;;16.70;99.90;;;;;;5117107;27;20548;-78
2023/05/05 03:24:35;;;;;;;7.07;5.20;;;16.80;99.90;;;;;;5116933;27;20186;-78
2023/05/05 03:27:01;;;;;;;8.60;6.33;;;16.90;99.90;;;;;;5134368;27;20187;-77
2023/05/05 03:29:28;;;;;;;9.93;6.13;;;16.90;99.90;;;;;;5116523;27;20172;-77
2023/05/05 03:31:55;;;;;;;9.43;6.07;;;16.80;99.90;;;;;;5116391;27;20228;-75
2023/05/05 03:34:20;;;;;;;7.50;6.67;;;16.90;99.90;;;;;;5134435;27;20182;-75
2023/05/05 03:36:46;;;;;;;8.67;6.80;;;16.70;99.90;;;;;;5116113;27;20534;-75
2023/05/05 03:39:12;;;;;;;9.17;5.97;;;16.80;99.90;;;;;;5116217;27;20174;-75
2023/05/05 03:41:37;;;;;;;10.53;6.77;;;16.60;99.90;;;;;;5099830;28;20214;-76
2023/05/05 03:44:03;;;;;;;7.73;6.20;;;16.70;99.90;;;;;;5113496;28;20255;-75
2023/05/05 03:46:29;;;;;;;9.10;6.17;;;16.80;99.90;;;;;;5095355;28;20215;-75
2023/05/05 03:48:56;;;;;;;8.43;6.50;;;16.80;99.90;;;;;;5095452;27;20250;-75
2023/05/05 03:51:23;;;;;;;7.80;6.10;;;16.70;99.90;;;;;;5133722;27;20230;-75
2023/05/05 03:53:50;;;;;;;8.77;6.37;;;16.70;99.90;;;;;;5115778;27;20186;-75
2023/05/05 03:56:15;;;;;;;10.10;6.50;;;16.60;99.90;;;;;;5133765;27;20630;-75
2023/05/05 03:58:42;;;;;;;10.33;6.50;;;16.60;99.90;;;;;;5115741;27;20174;-76
2023/05/05 04:01:08;;;;;;;7.47;6.47;;;16.80;99.90;;;;;;5115639;27;20598;-76
2023/05/05 04:03:33;;;;;;;10.90;7.20;;;16.90;99.90;;;;;;5129592;27;20227;-76
2023/05/05 04:06:00;;;;;;;10.93;7.27;;;16.90;99.90;;;;;;5095317;28;20258;-76
2023/05/05 04:08:26;;;;;;;8.93;6.67;;;16.80;99.90;;;;;;5095145;28;20194;-76
2023/05/05 04:10:51;;;;;;;13.80;7.40;;;16.60;99.90;;;;;;5095183;28;20201;-76
2023/05/05 04:13:17;;;;;;;12.20;7.27;;;16.50;99.90;;;;;;5095496;28;20164;-76
2023/05/05 04:15:44;;;;;;;13.47;7.33;;;16.50;99.90;;;;;;5094798;28;20165;-76
2023/05/05 04:18:11;;;;;;;13.70;7.60;;;16.60;99.90;;;;;;5112770;28;20177;-76
2023/05/05 04:20:38;;;;;;;9.67;7.67;;;16.50;99.90;;;;;;5113119;28;20540;-76
2023/05/05 04:23:03;;;;;;;10.20;7.47;;;16.50;99.90;;;;;;5113458;28;20257;-76
2023/05/05 04:25:29;;;;;;;11.90;7.67;;;16.30;99.90;;;;;;5094942;28;20227;-76
2023/05/05 04:27:55;;;;;;;12.00;7.53;;;16.20;99.90;;;;;;5113492;28;20176;-77
2023/05/05 04:30:21;;;;;;;11.57;7.93;;;16.10;99.90;;;;;;5112944;28;20166;-76
2023/05/05 04:32:46;;;;;;;9.77;7.40;;;16.30;99.90;;;;;;5112513;28;20193;-76
2023/05/05 04:35:12;;;;;;;12.00;8.13;;;16.10;99.90;;;;;;5098520;28;20440;-75
2023/05/05 04:37:38;;;;;;;15.60;7.80;;;16.00;99.90;;;;;;5116216;28;20244;-75
2023/05/05 04:40:05;;;;;;;12.43;8.13;;;16.30;99.90;;;;;;5113145;28;20164;-75
2023/05/05 04:42:31;;;;;;;11.83;7.80;;;16.30;99.90;;;;;;5094467;28;20201;-76
2023/05/05 04:44:58;;;;;;;13.07;8.07;;;16.20;99.90;;;;;;5094831;28;20176;-75
2023/05/05 04:47:23;;;;;;;9.87;7.63;;;16.20;99.90;;;;;;5094454;28;20184;-75
2023/05/05 04:49:49;;;;;;;11.07;7.07;;;16.20;99.90;;;;;;5112791;28;20268;-75
2023/05/05 04:52:15;;;;;;;11.30;7.50;;;16.20;99.90;;;;;;5094429;28;20196;-75
2023/05/05 04:54:40;;;;;;;10.77;8.20;;;16.20;99.90;;;;;;5095238;28;20175;-76
2023/05/05 04:57:06;;;;;;;13.20;8.20;;;16.10;99.90;;;;;;5096775;28;20170;-77
2023/05/05 04:59:32;;;;;;;8.57;7.37;;;16.20;99.90;;;;;;5114673;28;20543;-75
2023/05/05 05:01:57;;;;;;;15.70;7.97;;;16.20;99.90;;;;;;5113771;28;20181;-77
2023/05/05 05:04:24;;;;;;;9.43;7.53;;;16.30;99.90;;;;;;5133087;28;20176;-75
2023/05/05 05:06:50;;;;;;;10.50;7.57;;;16.30;99.90;;;;;;5114827;28;20542;-76
2023/05/05 05:09:16;;;;;;;10.17;8.07;;;16.40;99.90;;;;;;5115909;28;20202;-77
2023/05/05 05:11:42;;;;;;;10.57;7.20;;;16.50;99.90;;;;;;5133113;28;20514;-75
2023/05/05 05:14:07;;;;;;;10.90;7.60;;;16.80;99.90;;;;;;5132728;28;20190;-76
2023/05/05 05:16:34;;;;;;;12.27;7.30;;;16.90;99.90;;;;;;5114336;28;20246;-76
2023/05/05 05:19:00;;;;;;;11.73;8.07;;;16.90;99.90;;;;;;5133189;28;20172;-76
2023/05/05 05:21:26;;;;;;;12.10;7.37;;;17.10;99.90;;;;;;5114872;28;20222;-75
2023/05/05 05:23:52;;;;;;;11.00;7.77;;;17.10;99.90;;;;;;5114886;28;20684;-75
2023/05/05 05:26:18;;;;;;;10.90;7.73;;;16.90;99.90;;;;;;5132846;28;20620;-76
2023/05/05 05:28:45;;;;;;;9.63;7.30;;;17.00;99.90;;;;;;5133572;28;20205;-75
2023/05/05 05:31:10;;;;;;;12.23;7.60;;;16.80;99.90;;;;;;5122096;28;20200;-76
2023/05/05 05:33:37;;;;;;;11.27;7.03;;;16.70;99.90;;;;;;5095309;28;20189;-77
2023/05/05 05:36:04;;;;;;;10.13;7.20;;;16.70;99.90;;;;;;5116080;27;20239;-76
2023/05/05 05:38:30;;;;;;;12.57;8.07;;;16.90;99.90;;;;;;5116179;28;20169;-77
2023/05/05 05:40:55;;;;;;;8.43;7.53;;;17.00;99.90;;;;;;5116172;28;20645;-75
2023/05/05 05:43:21;;;;;;;8.30;7.03;;;17.20;99.90;;;;;;5115847;27;20171;-77
2023/05/05 05:45:47;;;;;;;13.13;7.73;;;17.40;99.90;;;;;;5115874;27;20263;-76
2023/05/05 05:48:12;;;;;;;12.60;7.57;;;17.20;99.90;;;;;;5136065;27;20188;-75
2023/05/05 05:50:38;;;;;;;9.63;6.87;;;17.20;99.90;;;;;;5117243;27;20186;-77
2023/05/05 05:53:04;;;;;;;10.13;6.77;;;17.20;99.90;;;;;;5097509;28;20181;-76
2023/05/05 05:55:29;;;;;;;10.80;6.37;;;17.20;99.90;;;;;;5101047;28;20206;-75
2023/05/05 05:57:55;;;;;;;8.33;6.23;;;17.20;99.90;;;;;;5115424;28;20245;-76
2023/05/05 06:00:21;;;;;;;9.33;6.37;;;17.20;99.90;;;;;;5104293;28;20170;-76
2023/05/05 06:02:47;;;;;;;7.43;6.40;;;17.20;99.90;;;;;;5116086;28;20185;-76
2023/05/05 06:05:12;;;;;;;8.23;6.23;;;17.40;99.90;;;;;;5098475;28;20179;-76
2023/05/05 06:07:39;;;;;;;10.00;6.40;;;17.50;99.90;;;;;;5106287;27;20176;-77
2023/05/05 06:10:05;;;;;;;9.30;6.60;;;17.60;99.90;;;;;;5136287;27;20682;-77
2023/05/05 06:12:32;;;;;;;11.43;7.00;;;17.70;99.90;;;;;;5128830;27;20720;-77
2023/05/05 06:14:57;;;;;;;10.57;6.23;;;17.90;99.90;;;;;;5098056;28;20177;-78
2023/05/05 06:17:24;;;;;;;10.23;6.87;;;17.80;99.90;;;;;;5115509;27;20177;-77
2023/05/05 06:19:50;;;;;;;8.87;6.30;;;18.00;99.90;;;;;;5099087;27;20177;-76
2023/05/05 06:22:16;;;;;;;10.43;5.90;;;18.10;99.90;;;;;;5118739;27;20551;-77
2023/05/05 06:24:42;;;;;;;8.93;6.27;;;18.20;99.90;;;;;;5137676;27;20537;-77
2023/05/05 06:27:08;;;;;;;11.20;6.87;;;18.20;99.90;;;;;;5137097;27;20177;-76
2023/05/05 06:29:33;;;;;;;9.87;6.00;;;18.10;99.90;;;;;;5100073;28;20177;-76
2023/05/05 06:32:00;;;;;;;12.20;7.10;;;18.00;99.90;;;;;;5101016;28;20197;-76
2023/05/05 06:34:25;;;;;;;10.13;6.97;;;18.00;99.90;;;;;;5116005;27;20693;-75
2023/05/05 06:36:51;;;;;;;11.47;6.43;;;18.00;99.90;;;;;;5115988;28;20248;-76
2023/05/05 06:39:17;;;;;;;11.57;6.60;;;18.20;99.90;;;;;;5115168;28;20173;-76
2023/05/05 06:41:43;;;;;;;8.87;6.17;;;18.30;99.90;;;;;;5100125;27;20173;-77
2023/05/05 06:44:10;;;;;;;12.50;5.87;;;18.40;99.90;;;;;;5096505;28;20273;-76
2023/05/05 06:46:35;;;;;;;9.80;5.83;;;18.50;99.90;;;;;;5115234;28;20232;-77
2023/05/05 06:49:01;;;;;;;7.50;5.67;;;18.60;99.90;;;;;;5113999;27;20544;-77
2023/05/05 06:51:27;;;;;;;8.13;5.67;;;18.60;99.90;;;;;;5117309;27;20676;-76
2023/05/05 06:53:52;;;;;;;9.87;5.87;;;18.60;99.90;;;;;;5135016;27;20645;-77
2023/05/05 06:56:18;;;;;;;9.10;5.87;;;18.70;99.90;;;;;;5135767;27;20177;-77
2023/05/05 06:58:44;;;;;;;8.73;5.40;;;18.90;99.90;;;;;;5116950;27;20177;-76
2023/05/05 07:01:10;;;;;;;10.07;6.10;;;18.90;99.90;;;;;;5134243;27;20174;-76
2023/05/05 07:03:36;;;;;;;9.03;6.03;;;19.10;99.90;;;;;;5115714;27;20272;-76
2023/05/05 07:06:02;;;;;;;8.17;5.90;;;18.90;99.90;;;;;;5094852;28;20272;-77
2023/05/05 07:08:28;;;;;;;11.07;6.27;;;18.80;99.90;;;;;;5114424;28;20276;-76
2023/05/05 07:11:06;;;;;;;7.90;5.93;;;18.70;99.90;;;;;;5115393;28;20207;-77
2023/05/05 07:13:32;;;;;;;9.57;5.57;;;18.90;99.90;;;;;;5113564;28;20180;-76
2023/05/05 07:16:01;;;;;;;8.67;5.70;;;19.30;99.90;;;;;;5115746;27;20188;-76
2023/05/05 07:18:30;;;;;;;11.67;5.10;;;19.60;99.90;;;;;;5133135;27;21975;-77
2023/05/05 07:20:57;;;;;;;8.43;4.60;;;19.60;99.90;;;;;;5107487;27;20661;-77
2023/05/05 07:23:23;;;;;;;7.20;4.83;;;19.80;99.90;;;;;;5113356;28;20264;-77
2023/05/05 07:25:49;;;;;;;11.37;4.53;;;19.80;99.90;;;;;;5094772;28;20281;-77
2023/05/05 07:28:17;;;;;;;9.50;4.70;;;19.60;99.90;;;;;;5114199;28;20182;-77
2023/05/05 07:30:44;;;;;;;8.97;4.23;;;19.90;99.90;;;;;;5095730;28;20188;-77
2023/05/05 07:33:14;;;;;;;7.13;4.17;;;20.20;99.90;;;;;;5095917;28;20191;-77
2023/05/05 07:35:46;;;;;;;8.87;4.80;;;20.50;99.90;;;;;;5114263;28;20162;-77
2023/05/05 07:38:15;;;;;;;9.73;5.07;;;20.60;99.90;;;;;;5113407;28;20638;-76
2023/05/05 07:40:42;;;;;;;10.20;5.07;;;19.90;99.90;;;;;;5113803;28;20162;-76
2023/05/05 07:43:07;;;;;;;9.13;4.10;;;19.80;99.90;;;;;;5095129;28;20185;-76
2023/05/05 07:45:33;;;;;;;8.47;4.43;;;19.40;99.90;;;;;;5113834;28;20184;-76
2023/05/05 07:47:58;;;;;;;8.83;4.60;;;19.10;99.90;;;;;;5113186;28;20256;-76
2023/05/05 07:50:25;;;;;;;18.33;5.50;;;18.90;99.90;;;;;;5096227;28;20276;-76
2023/05/05 07:52:51;;;;;;;8.63;5.00;;;19.20;99.90;;;;;;5124202;27;20193;-76
2023/05/05 07:55:17;;;;;;;10.33;4.97;;;19.20;99.90;;;;;;5103535;28;20189;-76
2023/05/05 07:57:43;;;;;;;12.63;4.70;;;19.40;99.90;;;;;;5111415;28;20193;-77
2023/05/05 08:00:09;;;;;;;10.63;5.00;;;19.50;99.90;;;;;;5113041;28;20196;-76
2023/05/05 08:02:35;;;;;;;6.97;4.90;;;19.80;99.90;;;;;;5112062;28;20266;-76
2023/05/05 08:05:00;;;;;;;8.13;4.87;;;20.10;99.90;;;;;;5112609;28;20231;-76
2023/05/05 08:07:26;;;;;;;11.83;5.33;;;20.20;99.90;;;;;;5113906;28;20170;-78
2023/05/05 08:09:52;;;;;;;9.80;5.60;;;20.20;99.90;;;;;;5095254;28;20237;-77
2023/05/05 08:12:18;;;;;;;12.27;5.23;;;20.30;99.90;;;;;;5119376;27;20193;-77
2023/05/05 08:14:43;;;;;;;10.40;5.10;;;20.50;99.90;;;;;;5113626;28;20626;-77
2023/05/05 08:17:09;;;;;;;11.40;4.90;;;20.50;99.90;;;;;;5125682;27;20180;-78
2023/05/05 08:19:35;;;;;;;10.63;5.00;;;20.40;99.90;;;;;;5113573;28;20158;-76
2023/05/05 08:22:06;;;;;;;9.70;4.87;;;20.40;99.90;;;;;;5127992;27;20551;-77
2023/05/05 08:24:33;;;;;;;6.87;4.20;;;20.60;99.90;;;;;;5129739;27;20638;-77
2023/05/05 08:26:59;;;;;;;7.57;4.70;;;20.60;99.90;;;;;;5134369;28;20197;-76
2023/05/05 08:29:25;;;;;;;7.50;4.50;;;20.70;99.90;;;;;;5125589;28;20565;-76
2023/05/05 08:31:54;;;;;;;10.67;4.50;;;20.90;99.90;;;;;;5106768;28;20239;-76
2023/05/05 08:34:20;;;;;;;10.97;4.07;;;21.00;99.90;;;;;;5134454;28;20654;-76
2023/05/05 08:36:57;;;;;;;7.47;3.57;;;20.90;99.90;;;;;;5126025;28;20174;-77
2023/05/05 08:39:26;;;;;;;10.37;3.80;;;20.80;99.90;;;;;;5114450;28;20177;-76
2023/05/05 08:41:53;;;;;;;7.07;3.80;;;20.60;99.90;;;;;;5097458;28;20272;-76
2023/05/05 08:44:22;;;;;;;7.07;4.10;;;20.30;99.90;;;;;;5112942;28;20178;-76
2023/05/05 08:46:49;;;;;;;9.17;4.43;;;20.30;99.90;;;;;;5121830;28;20196;-76
2023/05/05 08:49:16;;;;;;;9.20;4.90;;;19.90;99.90;;;;;;5133868;28;20573;-76
2023/05/05 08:51:45;;;;;;;10.97;5.53;;;19.80;99.90;;;;;;5122552;28;20232;-76
2023/05/05 08:54:20;;;;;;;9.47;5.87;;;20.00;99.90;;;;;;5120811;28;20272;-77
2023/05/05 08:56:49;;;;;;;8.83;4.93;;;20.10;99.90;;;;;;5107050;28;20177;-78
2023/05/05 08:59:17;;;;;;;9.67;5.73;;;20.00;99.90;;;;;;5095919;28;20269;-76
2023/05/05 09:01:58;;;;;;;8.97;5.67;;;20.00;99.90;;;;;;5113794;28;20202;-77
2023/05/05 09:04:26;;;;;;;8.70;5.83;;;19.90;99.90;;;;;;5114551;28;20226;-78
2023/05/05 09:06:51;;;;;;;14.17;6.97;;;20.00;99.90;;;;;;5126546;28;20181;-77
2023/05/05 09:09:19;;;;;;;13.87;7.47;;;19.90;99.90;;;;;;5135551;27;20258;-77
2023/05/05 09:11:45;;;;;;;9.80;7.03;;;19.90;99.90;;;;;;5122659;27;20204;-78
2023/05/05 09:14:13;;;;;;;12.83;9.20;;;19.50;99.90;;;;;;5129668;27;20173;-79
2023/05/05 09:16:43;;;;;;;14.30;8.10;;;19.30;99.90;;;;;;5121404;27;20229;-77
2023/05/05 09:19:12;;;;;;;14.13;10.10;;;19.10;99.90;;;;;;5099257;28;20235;-77
2023/05/05 09:21:47;;;;;;;11.90;10.20;;;19.30;99.90;;;;;;5099049;28;20204;-78
2023/05/05 09:24:14;;;;;;;13.57;9.43;;;19.30;99.90;;;;;;5105957;27;20187;-78
2023/05/05 09:26:45;;;;;;;17.57;9.77;;;19.10;99.90;;;;;;5119540;27;20222;-78
2023/05/05 09:29:25;;;;;;;10.50;9.00;;;19.00;99.90;;;;;;5106495;28;20170;-77
2023/05/05 09:32:07;;;;;;;10.77;7.90;;;19.10;99.90;;;;;;5098878;28;20254;-77
2023/05/05 09:34:34;;;;;;;13.17;7.70;;;19.30;99.90;;;;;;5134406;27;20180;-77
2023/05/05 09:37:00;;;;;;;11.50;6.07;;;19.40;99.90;;;;;;5126547;27;20269;-77
2023/05/05 09:39:26;;;;;;;9.13;6.83;;;19.30;99.90;;;;;;5098700;28;20174;-76
2023/05/05 09:41:51;;;;;;;10.70;7.23;;;19.10;99.90;;;;;;5107947;27;20263;-77
2023/05/05 09:44:33;;;;;;;10.07;5.97;;;19.40;99.90;;;;;;5137917;27;20166;-76
2023/05/05 09:47:00;;;;;;;10.83;5.47;;;19.70;99.90;;;;;;5111808;28;20208;-77
2023/05/05 09:49:31;;;;;;;11.17;5.97;;;19.80;99.90;;;;;;5098944;28;20185;-78
2023/05/05 09:52:13;;;;;;;11.47;5.63;;;19.70;99.90;;;;;;5108545;27;20200;-77
2023/05/05 09:54:39;;;;;;;8.67;5.60;;;19.80;99.90;;;;;;5137276;27;20207;-77
2023/05/05 09:57:08;;;;;;;9.33;5.47;;;19.80;99.90;;;;;;5119329;27;20657;-77
2023/05/05 09:59:33;;;;;;;13.17;5.77;;;19.50;99.90;;;;;;5105934;28;20261;-77
2023/05/05 10:02:16;;;;;;;13.37;5.53;;;19.70;99.90;;;;;;5098380;28;20706;-77
2023/05/05 10:04:41;;;;;;;10.67;4.83;;;19.50;99.90;;;;;;5088731;27;20191;-77
2023/05/05 10:07:07;;;;;;;11.97;4.83;;;19.60;99.90;;;;;;5109239;28;20166;-77
2023/05/05 10:09:39;;;;;;;8.23;4.20;;;19.60;99.90;;;;;;5098511;28;20213;-77
2023/05/05 10:12:04;;;;;;;7.30;3.90;;;19.60;99.90;;;;;;5104304;27;20210;-77
2023/05/05 10:14:34;;;;;;;7.30;3.57;;;19.30;99.90;;;;;;5118415;27;20171;-77
2023/05/05 10:17:03;;;;;;;6.77;3.40;;;19.30;99.90;;;;;;5125169;27;20657;-76
2023/05/05 10:19:34;;;;;;;8.47;2.60;;;19.40;99.90;;;;;;5111342;27;20691;-76
2023/05/05 10:22:07;;;;;;;7.53;3.27;;;19.80;99.90;;;;;;5128171;27;20205;-75
2023/05/05 10:24:49;;;;;;;6.50;3.20;;;20.20;99.90;;;;;;5120538;27;20178;-77
2023/05/05 10:27:23;;;;;;;10.00;3.23;;;20.40;99.90;;;;;;5115499;28;20182;-76
2023/05/05 10:30:02;;;;;;;7.37;2.70;;;20.60;99.90;;;;;;5117481;27;20713;-77
2023/05/05 10:32:46;;;;;;;7.50;2.87;;;20.80;99.90;;;;;;5117589;27;20581;-78
2023/05/05 10:35:23;;;;;;;7.43;2.90;;;21.00;99.90;;;;;;5136603;27;20196;-77
2023/05/05 10:37:52;;;;;;;9.63;2.70;;;20.80;99.90;;;;;;5116651;27;20219;-77
2023/05/05 10:40:23;;;;;;;4.67;2.80;;;20.60;99.90;;;;;;5117445;27;20174;-78
2023/05/05 10:43:03;;;;;;;5.33;2.80;;;20.30;99.90;;;;;;5129799;27;20208;-77
2023/05/05 10:45:29;;;;;;;7.07;3.20;;;20.20;99.90;;;;;;5115098;28;20175;-79
2023/05/05 10:47:59;;;;;;;10.97;3.37;;;20.10;99.90;;;;;;5096448;28;20178;-79
2023/05/05 10:50:46;;;;;;;5.07;2.63;;;20.10;99.90;;;;;;5114858;28;20170;-79
2023/05/05 10:53:22;;;;;;;5.23;2.80;;;19.40;99.90;;;;;;5076067;28;20269;-79
2023/05/05 10:56:03;;;;;;;7.23;2.73;;;19.50;99.90;;;;;;5093974;27;20621;-77
2023/05/05 10:58:40;;;;;;;7.90;2.80;;;19.60;99.90;;;;;;5116778;27;20275;-78
2023/05/05 11:01:08;;;;;;;6.57;3.10;;;19.70;99.90;;;;;;5112224;27;20610;-77
2023/05/05 11:03:33;;;;;;;11.67;3.37;;;19.60;99.90;;;;;;5109902;27;20271;-78
2023/05/05 11:06:02;;;;;;;7.27;3.30;;;19.20;99.90;;;;;;5109351;28;20206;-78
2023/05/05 11:08:35;;;;;;;7.57;3.80;;;19.10;99.90;;;;;;5108764;28;20549;-78
2023/05/05 11:11:02;;;;;;;8.97;3.00;;;19.00;99.90;;;;;;5115061;28;20627;-78
2023/05/05 11:13:28;;;;;;;8.73;3.53;;;19.10;99.90;;;;;;5097033;28;20576;-78
2023/05/05 11:15:55;;;;;;;6.83;3.93;;;19.30;99.90;;;;;;5113942;28;20512;-78
2023/05/05 11:18:34;;;;;;;8.67;3.93;;;19.60;99.90;;;;;;5095331;28;20180;-79
2023/05/05 11:21:00;;;;;;;8.73;4.07;;;19.60;99.90;;;;;;5095704;28;20180;-79
2023/05/05 11:23:27;;;;;;;6.77;4.37;;;19.60;99.90;;;;;;5095662;28;20323;-78
2023/05/05 11:25:53;;;;;;;11.07;4.73;;;19.50;99.90;;;;;;5114050;28;20629;-77
2023/05/05 11:28:23;;;;;;;11.20;4.47;;;19.60;99.90;;;;;;5098332;27;20536;-78
2023/05/05 11:30:55;;;;;;;9.40;3.70;;;19.40;99.90;;;;;;5115400;28;20277;-78
2023/05/05 11:33:31;;;;;;;6.90;3.50;;;19.50;99.90;;;;;;5121248;27;20177;-78
2023/05/05 11:36:00;;;;;;;8.50;3.20;;;19.60;99.90;;;;;;5113348;27;20169;-78
2023/05/05 11:38:37;;;;;;;5.93;2.83;;;20.00;99.90;;;;;;5095468;28;20193;-78
2023/05/05 11:41:15;;;;;;;4.67;2.50;;;20.20;99.90;;;;;;5094843;28;20201;-78
2023/05/05 11:43:41;;;;;;;7.40;2.80;;;20.20;99.90;;;;;;5128574;27;20176;-78
2023/05/05 11:46:12;;;;;;;7.60;2.47;;;20.30;99.90;;;;;;5125963;27;20173;-78
2023/05/05 11:48:45;;;;;;;11.30;2.00;;;21.00;99.90;;;;;;5111447;27;20177;-78
2023/05/05 11:51:12;;;;;;;7.73;2.10;;;21.50;99.90;;;;;;5132908;27;20207;-79
2023/05/05 11:53:42;;;;;;;7.80;2.33;;;22.10;99.90;;;;;;5112291;27;20177;-79
2023/05/05 11:56:10;;;;;;;3.23;1.83;;;21.80;99.90;;;;;;5094605;28;20215;-78
2023/05/05 11:58:37;;;;;;;6.40;2.10;;;21.60;99.90;;;;;;5115396;27;20201;-78
2023/05/05 12:01:06;;;;;;;8.07;2.37;;;21.40;99.90;;;;;;5114867;27;20233;-78
2023/05/05 12:03:37;;;;;;;4.23;1.70;;;21.40;99.90;;;;;;5113108;27;20638;-79
2023/05/05 12:06:07;;;;;;;3.60;1.30;;;21.30;99.90;;;;;;5114570;27;20193;-80
2023/05/05 12:08:40;;;;;;;4.17;1.33;;;21.40;99.90;;;;;;5128607;27;20189;-79
2023/05/05 12:11:07;;;;;;;5.80;1.27;;;21.40;99.90;;;;;;5083546;28;20560;-79
2023/05/05 12:13:33;;;;;;;2.37;1.10;;;21.30;99.90;;;;;;5094653;28;20592;-79
2023/05/05 12:16:10;;;;;;;5.10;1.37;;;21.40;99.90;;;;;;5110719;28;20230;-78
2023/05/05 12:18:37;;;;;;;6.17;1.83;;;21.70;99.90;;;;;;5133386;27;20172;-78
2023/05/05 12:21:14;;;;;;;8.07;1.50;;;21.20;99.90;;;;;;5115205;28;20685;-79
2023/05/05 12:23:40;;;;;;;5.70;1.63;;;21.00;99.90;;;;;;5114334;27;20651;-78
2023/05/05 12:26:06;;;;;;;4.70;1.13;;;20.90;99.90;;;;;;5133176;27;20180;-78
2023/05/05 12:28:47;;;;;;;3.80;1.40;;;20.70;99.90;;;;;;5132845;28;20570;-78
2023/05/05 12:31:13;;;;;;;5.70;1.47;;;20.20;99.90;;;;;;5113581;28;20570;-78
2023/05/05 12:33:40;;;;;;;4.00;1.00;;;20.00;99.90;;;;;;5123482;28;20178;-77
2023/05/05 12:36:07;;;;;;;4.17;1.23;;;20.00;99.90;;;;;;5123766;28;20253;-77
2023/05/05 12:38:33;;;;;;;5.03;1.67;;;19.90;99.90;;;;;;5114617;28;20184;-77
2023/05/05 12:40:59;;;;;;;6.13;1.73;;;19.60;99.90;;;;;;5114701;28;20187;-77
2023/05/05 12:43:28;;;;;;;4.27;1.43;;;19.20;99.90;;;;;;5116802;27;20297;-77
2023/05/05 12:46:03;;;;;;;4.47;1.30;;;19.10;99.90;;;;;;5131162;27;20177;-77
2023/05/05 12:48:29;;;;;;;4.77;1.10;;;19.20;99.90;;;;;;5098666;28;20192;-79